createdAt,value
2018-02-10T00:00:32.451Z,45.28
2018-02-10T00:03:00.662Z,48.30
2018-02-10T00:05:29.573Z,50.42
2018-02-10T00:07:57.878Z,39.45
2018-02-10T00:10:26.360Z,53.17
2018-02-10T00:12:55.598Z,47.72
2018-02-10T00:15:24.201Z,51.97
2018-02-10T00:17:54.208Z,47.28
2018-02-10T00:20:22.389Z,48.38
2018-02-10T00:22:51.396Z,51.13
2018-02-10T00:25:20.321Z,51.10
2018-02-10T00:27:50.189Z,47.45
2018-02-10T00:30:19.814Z,53.85
2018-02-10T00:32:48.751Z,55.03
2018-02-10T00:35:17.768Z,51.22
2018-02-10T00:37:46.024Z,53.60
2018-02-10T00:40:16.741Z,54.97
2018-02-10T00:42:45.014Z,48.15
2018-02-10T00:45:13.168Z,55.60
2018-02-10T00:47:44.113Z,50.45
2018-02-10T00:50:13.463Z,55.00
2018-02-10T00:52:42.672Z,53.00
2018-02-10T00:55:12.630Z,47.13
2018-02-10T00:57:40.901Z,47.13
2018-02-10T01:00:09.125Z,45.72
2018-02-10T01:02:38.997Z,46.92
2018-02-10T01:05:07.282Z,48.95
2018-02-10T01:07:40.937Z,54.88
2018-02-10T01:10:13.239Z,57.80
2018-02-10T01:12:41.401Z,54.55
2018-02-10T01:17:52.499Z,54.28
2018-02-10T01:20:22.600Z,54.90
2018-02-10T01:22:52.386Z,56.80
2018-02-10T01:25:20.578Z,44.40
2018-02-10T01:27:53.855Z,50.65
2018-02-10T01:30:22.506Z,47.83
2018-02-10T01:32:50.674Z,49.20
2018-02-10T01:35:19.449Z,54.85
2018-02-10T01:37:50.283Z,54.67
2018-02-10T01:40:18.434Z,51.60
2018-02-10T01:42:47.973Z,44.28
2018-02-10T01:45:17.023Z,49.45
2018-02-10T01:47:49.373Z,44.00
2018-02-10T01:50:23.828Z,49.72
2018-02-10T01:52:52.005Z,47.20
2018-02-10T01:55:26.061Z,52.78
2018-02-10T01:58:00.318Z,47.50
2018-02-10T02:00:28.538Z,48.00
2018-02-10T02:02:57.665Z,47.13
2018-02-10T02:05:27.565Z,54.28
2018-02-10T02:07:55.926Z,44.55
2018-02-10T02:10:25.038Z,52.80
2018-02-10T02:12:53.266Z,52.20
2018-02-10T02:15:22.268Z,53.58
2018-02-10T02:17:51.185Z,50.22
2018-02-10T02:20:19.369Z,43.20
2018-02-10T02:22:47.619Z,51.80
2018-02-10T02:25:18.154Z,48.70
2018-02-10T02:27:47.224Z,48.55
2018-02-10T02:30:16.914Z,53.92
2018-02-10T02:32:45.097Z,51.45
2018-02-10T02:35:13.327Z,52.03
2018-02-10T02:37:47.958Z,60.17
2018-02-10T02:40:16.166Z,58.22
2018-02-10T02:42:44.349Z,53.22
2018-02-10T02:45:13.284Z,57.15
2018-02-10T02:47:42.434Z,48.38
2018-02-10T02:50:10.616Z,53.67
2018-02-10T02:52:39.355Z,55.35
2018-02-10T02:55:09.885Z,50.92
2018-02-10T02:57:38.991Z,42.50
2018-02-10T03:00:07.176Z,41.05
2018-02-10T03:02:38.334Z,48.53
2018-02-10T03:05:08.682Z,46.15
2018-02-10T03:07:37.005Z,40.83
2018-02-10T03:10:06.239Z,49.60
2018-02-10T03:12:36.897Z,54.70
2018-02-10T03:15:05.496Z,51.03
2018-02-10T03:17:41.058Z,50.10
2018-02-10T03:20:12.465Z,56.50
2018-02-10T03:22:42.792Z,48.33
2018-02-10T03:25:13.778Z,48.15
2018-02-10T03:27:42.957Z,49.30
2018-02-10T03:30:11.598Z,46.28
2018-02-10T03:32:40.604Z,52.22
2018-02-10T03:35:12.754Z,58.63
2018-02-10T03:37:48.132Z,52.35
2018-02-10T03:40:17.082Z,49.28
2018-02-10T03:42:47.244Z,47.13
2018-02-10T03:45:17.175Z,47.20
2018-02-10T03:47:46.246Z,46.80
2018-02-10T03:50:16.232Z,42.33
2018-02-10T03:52:44.814Z,47.72
2018-02-10T03:55:13.576Z,45.30
2018-02-10T03:57:41.850Z,51.53
2018-02-10T04:00:10.044Z,55.80
2018-02-10T04:02:39.909Z,47.92
2018-02-10T04:05:08.320Z,49.05
2018-02-10T04:07:38.414Z,47.38
2018-02-10T04:10:07.313Z,51.13
2018-02-10T04:12:37.646Z,52.22
2018-02-10T04:15:06.166Z,47.90
2018-02-10T04:17:35.391Z,42.83
2018-02-10T04:20:04.233Z,44.70
2018-02-10T04:22:34.513Z,48.40
2018-02-10T04:25:04.326Z,40.63
2018-02-10T04:27:33.309Z,46.92
2018-02-10T04:30:02.234Z,37.95
2018-02-10T04:32:30.902Z,46.85
2018-02-10T04:35:00.465Z,49.13
2018-02-10T04:37:29.290Z,44.22
2018-02-10T04:39:59.612Z,51.00
2018-02-10T04:42:30.318Z,47.15
2018-02-10T04:45:00.477Z,48.58
2018-02-10T04:47:30.338Z,45.58
2018-02-10T04:49:58.501Z,48.15
2018-02-10T04:52:27.867Z,49.58
2018-02-10T04:54:58.494Z,42.72
2018-02-10T04:57:28.916Z,41.72
2018-02-10T04:59:57.943Z,43.67
2018-02-10T05:02:26.110Z,50.80
2018-02-10T05:04:55.556Z,48.72
2018-02-10T05:07:24.721Z,49.25
2018-02-10T05:09:54.179Z,48.38
2018-02-10T05:12:22.563Z,50.30
2018-02-10T05:14:51.514Z,46.00
2018-02-10T05:17:33.389Z,49.17
2018-02-10T05:20:02.517Z,52.50
2018-02-10T05:22:31.730Z,44.75
2018-02-10T05:25:00.178Z,46.65
2018-02-10T05:27:31.836Z,45.03
2018-02-10T05:30:00.546Z,49.70
2018-02-10T05:32:28.802Z,54.33
2018-02-10T05:34:57.277Z,41.03
2018-02-10T05:37:27.613Z,45.70
2018-02-10T05:39:56.644Z,52.45
2018-02-10T05:42:24.795Z,46.65
2018-02-10T05:44:53.953Z,46.55
2018-02-10T05:47:25.529Z,46.92
2018-02-10T05:49:53.699Z,53.08
2018-02-10T05:52:22.685Z,46.88
2018-02-10T05:54:51.256Z,46.42
2018-02-10T05:57:24.165Z,49.78
2018-02-10T05:59:54.234Z,51.28
2018-02-10T06:02:23.514Z,51.35
2018-02-10T06:04:55.173Z,50.78
2018-02-10T06:07:23.398Z,46.70
2018-02-10T06:09:53.221Z,50.00
2018-02-10T06:12:21.410Z,44.55
2018-02-10T06:14:49.961Z,47.20
2018-02-10T06:17:19.366Z,48.17
2018-02-10T06:19:49.102Z,55.95
2018-02-10T06:22:17.265Z,46.10
2018-02-10T06:24:46.262Z,48.38
2018-02-10T06:27:15.435Z,42.47
2018-02-10T06:29:43.817Z,47.58
2018-02-10T06:32:16.436Z,40.40
2018-02-10T06:34:44.583Z,43.28
2018-02-10T06:37:13.481Z,39.13
2018-02-10T06:39:43.337Z,50.33
2018-02-10T06:42:12.084Z,42.50
2018-02-10T06:44:41.816Z,48.15
2018-02-10T06:47:14.537Z,47.38
2018-02-10T06:49:45.830Z,41.83
2018-02-10T06:52:17.435Z,49.55
2018-02-10T06:54:47.041Z,41.25
2018-02-10T06:57:16.189Z,50.53
2018-02-10T06:59:44.578Z,45.42
2018-02-10T07:02:13.507Z,50.28
2018-02-10T07:04:44.869Z,40.35
2018-02-10T07:07:13.760Z,48.20
2018-02-10T07:09:41.918Z,45.17
2018-02-10T07:12:10.858Z,46.83
2018-02-10T07:14:39.015Z,52.50
2018-02-10T07:17:07.284Z,50.63
2018-02-10T07:19:35.452Z,49.75
2018-02-10T07:22:03.681Z,42.15
2018-02-10T07:24:31.888Z,46.80
2018-02-10T07:27:00.166Z,42.35
2018-02-10T07:29:29.288Z,50.50
2018-02-10T07:31:57.445Z,44.22
2018-02-10T07:34:25.622Z,50.90
2018-02-10T07:36:54.832Z,44.20
2018-02-10T07:39:23.818Z,43.67
2018-02-10T07:41:53.071Z,51.00
2018-02-10T07:44:21.855Z,46.20
2018-02-10T07:46:50.061Z,42.90
2018-02-10T07:49:18.903Z,45.20
2018-02-10T07:51:47.125Z,43.08
2018-02-10T07:54:17.124Z,39.42
2018-02-10T07:56:51.154Z,45.12
2018-02-10T07:59:19.342Z,43.92
2018-02-10T08:01:56.430Z,44.53
2018-02-10T08:04:24.662Z,42.75
2018-02-10T08:06:53.981Z,46.75
2018-02-10T08:09:22.909Z,42.70
2018-02-10T08:11:51.081Z,40.22
2018-02-10T08:14:19.249Z,42.00
2018-02-10T08:16:48.440Z,40.80
2018-02-10T08:19:16.609Z,46.97
2018-02-10T08:21:44.786Z,38.63
2018-02-10T08:24:12.964Z,48.63
2018-02-10T08:26:45.037Z,41.37
2018-02-10T08:29:13.321Z,50.90
2018-02-10T08:31:41.509Z,47.25
2018-02-10T08:34:09.690Z,43.13
2018-02-10T08:36:43.073Z,45.42
2018-02-10T08:39:11.417Z,47.08
2018-02-10T08:41:39.598Z,47.65
2018-02-10T08:44:08.572Z,49.63
2018-02-10T08:46:37.593Z,40.03
2018-02-10T08:49:05.757Z,38.38
2018-02-10T08:51:34.813Z,44.08
2018-02-10T08:54:02.985Z,40.60
2018-02-10T08:56:31.194Z,44.60
2018-02-10T08:59:00.108Z,39.25
2018-02-10T09:01:28.553Z,36.78
2018-02-10T09:03:57.482Z,39.80
2018-02-10T09:06:26.439Z,43.10
2018-02-10T09:08:54.597Z,45.17
2018-02-10T09:11:22.746Z,46.42
2018-02-10T09:13:50.901Z,47.17
2018-02-10T09:16:19.160Z,39.17
2018-02-10T09:18:47.339Z,52.45
2018-02-10T09:21:15.989Z,34.80
2018-02-10T09:23:44.142Z,49.13
2018-02-10T09:26:13.341Z,48.40
2018-02-10T09:28:42.505Z,43.15
2018-02-10T09:31:10.660Z,46.45
2018-02-10T09:33:38.817Z,44.85
2018-02-10T09:36:07.824Z,40.00
2018-02-10T09:38:37.656Z,37.30
2018-02-10T09:41:07.304Z,38.35
2018-02-10T09:43:36.343Z,38.03
2018-02-10T09:46:04.612Z,44.20
2018-02-10T09:48:33.072Z,42.47
2018-02-10T09:51:01.226Z,36.08
2018-02-10T09:53:41.074Z,34.55
2018-02-10T09:56:15.814Z,42.95
2018-02-10T09:58:44.005Z,45.20
2018-02-10T10:01:22.392Z,38.33
2018-02-10T10:03:50.617Z,41.97
2018-02-10T10:06:19.700Z,34.80
2018-02-10T10:08:47.856Z,41.08
2018-02-10T10:11:16.053Z,34.15
2018-02-10T10:13:44.222Z,30.95
2018-02-10T10:16:13.233Z,33.10
2018-02-10T10:18:41.401Z,35.40
2018-02-10T10:21:09.720Z,34.50
2018-02-10T10:23:37.817Z,29.70
2018-02-10T10:26:09.822Z,34.03
2018-02-10T10:28:38.530Z,39.45
2018-02-10T10:31:07.594Z,44.92
2018-02-10T10:33:36.773Z,30.17
2018-02-10T10:36:16.330Z,47.30
2018-02-10T10:38:45.101Z,33.83
2018-02-10T10:41:13.666Z,34.72
2018-02-10T10:43:41.825Z,35.80
2018-02-10T10:46:12.008Z,34.70
2018-02-10T10:48:40.268Z,35.95
2018-02-10T10:51:08.446Z,32.50
2018-02-10T10:53:36.617Z,35.75
2018-02-10T10:56:04.904Z,35.13
2018-02-10T10:58:33.078Z,33.85
2018-02-10T11:01:01.252Z,33.30
2018-02-10T11:03:29.500Z,26.65
2018-02-10T11:05:58.450Z,34.72
2018-02-10T11:08:26.623Z,36.55
2018-02-10T11:10:54.813Z,39.40
2018-02-10T11:13:22.973Z,30.83
2018-02-10T11:15:51.150Z,27.55
2018-02-10T11:18:19.317Z,26.08
2018-02-10T11:20:47.500Z,31.62
2018-02-10T11:23:15.661Z,30.15
2018-02-10T11:25:43.833Z,28.85
2018-02-10T11:28:12.005Z,29.08
2018-02-10T11:30:40.165Z,31.92
2018-02-10T11:33:09.139Z,33.20
2018-02-10T11:35:37.312Z,30.25
2018-02-10T11:38:05.468Z,23.60
2018-02-10T11:40:34.405Z,29.87
2018-02-10T11:43:02.854Z,20.95
2018-02-10T11:45:32.573Z,24.65
2018-02-10T11:48:00.764Z,25.17
2018-02-10T11:50:28.945Z,29.02
2018-02-10T11:52:57.386Z,22.60
2018-02-10T11:55:26.630Z,20.48
2018-02-10T11:57:56.021Z,27.08
2018-02-10T12:00:26.845Z,23.15
2018-02-10T12:02:55.675Z,29.85
2018-02-10T12:05:26.038Z,22.87
2018-02-10T12:07:55.088Z,25.33
2018-02-10T12:10:24.080Z,22.52
2018-02-10T12:12:56.898Z,24.23
2018-02-10T12:15:25.325Z,26.73
2018-02-10T12:17:54.321Z,23.83
2018-02-10T12:20:24.084Z,18.23
2018-02-10T12:22:54.093Z,18.15
2018-02-10T12:25:22.587Z,21.73
2018-02-10T12:27:51.354Z,20.98
2018-02-10T12:30:19.988Z,17.52
2018-02-10T12:32:48.146Z,19.83
2018-02-10T12:35:16.304Z,18.48
2018-02-10T12:37:44.523Z,20.02
2018-02-10T12:40:17.933Z,18.55
2018-02-10T12:42:46.963Z,21.67
2018-02-10T12:45:16.288Z,19.80
2018-02-10T12:47:58.608Z,16.58
2018-02-10T12:50:27.654Z,21.58
2018-02-10T12:52:56.847Z,17.17
2018-02-10T12:55:25.624Z,22.00
2018-02-10T12:57:55.934Z,17.95
2018-02-10T13:00:25.261Z,16.37
2018-02-10T13:05:27.476Z,18.52
2018-02-10T13:07:55.794Z,22.65
2018-02-10T13:10:26.791Z,17.70
2018-02-10T13:12:55.649Z,19.23
2018-02-10T13:15:25.124Z,14.32
2018-02-10T13:17:54.578Z,16.80
2018-02-10T13:20:24.684Z,14.50
2018-02-10T13:22:54.396Z,14.75
2018-02-10T13:25:23.872Z,20.27
2018-02-10T13:27:55.250Z,17.17
2018-02-10T13:30:24.407Z,17.15
2018-02-10T13:32:54.131Z,15.95
2018-02-10T13:35:24.387Z,14.80
2018-02-10T13:37:55.630Z,16.12
2018-02-10T13:40:27.779Z,14.95
2018-02-10T13:42:56.051Z,17.05
2018-02-10T13:45:25.501Z,17.15
2018-02-10T13:47:54.514Z,14.40
2018-02-10T13:50:24.293Z,17.98
2018-02-10T13:52:54.246Z,13.62
2018-02-10T13:55:22.395Z,15.85
2018-02-10T13:57:51.425Z,14.23
2018-02-10T14:00:19.614Z,12.15
2018-02-10T14:02:48.633Z,14.35
2018-02-10T14:05:17.972Z,15.18
2018-02-10T14:07:47.796Z,13.98
2018-02-10T14:10:18.556Z,10.75
2018-02-10T14:12:46.727Z,12.73
2018-02-10T14:15:14.904Z,10.23
2018-02-10T14:17:45.053Z,13.65
2018-02-10T14:20:14.157Z,11.48
2018-02-10T14:22:42.431Z,10.40
2018-02-10T14:25:12.856Z,9.85
2018-02-10T14:27:41.997Z,11.85
2018-02-10T14:30:10.217Z,16.95
2018-02-10T14:32:38.718Z,13.18
2018-02-10T14:35:07.091Z,10.68
2018-02-10T14:37:35.321Z,14.45
2018-02-10T14:40:05.652Z,10.80
2018-02-10T14:42:33.832Z,9.85
2018-02-10T14:45:02.959Z,12.60
2018-02-10T14:47:31.668Z,12.55
2018-02-10T14:50:04.057Z,11.73
2018-02-10T14:52:33.765Z,9.23
2018-02-10T14:55:02.245Z,12.57
2018-02-10T14:57:30.777Z,8.65
2018-02-10T15:00:00.668Z,8.02
2018-02-10T15:02:29.034Z,9.88
2018-02-10T15:04:57.235Z,8.95
2018-02-10T15:07:26.918Z,11.63
2018-02-10T15:09:55.137Z,7.43
2018-02-10T15:12:23.292Z,8.25
2018-02-10T15:14:52.192Z,11.48
2018-02-10T15:17:22.264Z,9.88
2018-02-10T15:19:52.150Z,12.25
2018-02-10T15:22:20.630Z,8.10
2018-02-10T15:24:49.811Z,9.15
2018-02-10T15:27:19.043Z,7.97
2018-02-10T15:30:00.556Z,8.35
2018-02-10T15:32:42.787Z,11.90
2018-02-10T15:35:10.946Z,8.93
2018-02-10T15:37:41.093Z,8.65
2018-02-10T15:40:09.277Z,8.90
2018-02-10T15:42:39.128Z,11.77
2018-02-10T15:45:07.324Z,7.50
2018-02-10T15:47:36.850Z,13.98
2018-02-10T15:50:05.100Z,10.88
2018-02-10T15:52:35.998Z,11.95
2018-02-10T15:55:06.627Z,10.95
2018-02-10T15:57:38.192Z,13.13
2018-02-10T16:00:07.118Z,10.85
2018-02-10T16:02:35.279Z,11.40
2018-02-10T16:05:04.753Z,11.98
2018-02-10T16:07:34.810Z,13.62
2018-02-10T16:10:03.815Z,15.80
2018-02-10T16:12:34.136Z,13.90
2018-02-10T16:15:04.650Z,13.13
2018-02-10T16:17:34.056Z,15.90
2018-02-10T16:20:03.240Z,12.43
2018-02-10T16:22:31.573Z,13.93
2018-02-10T16:25:01.009Z,16.12
2018-02-10T16:27:34.402Z,16.25
2018-02-10T16:30:09.101Z,14.73
2018-02-10T16:32:41.356Z,14.93
2018-02-10T16:35:09.505Z,14.07
2018-02-10T16:37:38.827Z,13.38
2018-02-10T16:40:06.992Z,13.57
2018-02-10T16:42:35.154Z,14.38
2018-02-10T16:45:05.131Z,10.90
2018-02-10T16:47:34.816Z,11.80
2018-02-10T16:50:02.998Z,10.70
2018-02-10T16:52:31.180Z,9.50
2018-02-10T16:55:00.907Z,12.80
2018-02-10T16:57:29.125Z,10.23
2018-02-10T16:59:58.366Z,11.93
2018-02-10T17:02:28.217Z,10.40
2018-02-10T17:04:57.133Z,11.07
2018-02-10T17:07:28.963Z,11.07
2018-02-10T17:10:07.750Z,12.30
2018-02-10T17:12:38.850Z,12.63
2018-02-10T17:15:09.152Z,10.55
2018-02-10T17:17:38.828Z,11.35
2018-02-10T17:20:07.969Z,11.52
2018-02-10T17:22:36.131Z,13.55
2018-02-10T17:25:05.512Z,17.40
2018-02-10T17:27:39.869Z,21.95
2018-02-10T17:30:08.148Z,13.48
2018-02-10T17:32:36.353Z,10.00
2018-02-10T17:35:04.634Z,10.98
2018-02-10T17:37:33.765Z,12.18
2018-02-10T17:40:02.875Z,12.30
2018-02-10T17:42:31.102Z,12.13
2018-02-10T17:44:59.325Z,12.13
2018-02-10T17:47:31.285Z,13.00
2018-02-10T17:49:59.449Z,12.30
2018-02-10T17:52:29.160Z,10.18
2018-02-10T17:57:39.037Z,11.57
2018-02-10T18:00:08.627Z,11.05
2018-02-10T18:02:37.814Z,15.18
2018-02-10T18:05:06.512Z,13.90
2018-02-10T18:07:37.370Z,15.27
2018-02-10T18:10:05.586Z,17.10
2018-02-10T18:12:33.750Z,16.95
2018-02-10T18:15:03.384Z,15.32
2018-02-10T18:17:34.214Z,14.85
2018-02-10T18:20:02.373Z,15.05
2018-02-10T18:22:30.613Z,15.77
2018-02-10T18:25:00.291Z,13.98
2018-02-10T18:27:29.688Z,13.75
2018-02-10T18:29:58.641Z,14.73
2018-02-10T18:32:29.190Z,12.75
2018-02-10T18:34:58.217Z,16.40
2018-02-10T18:37:34.434Z,15.75
2018-02-10T18:40:04.282Z,18.15
2018-02-10T18:42:32.529Z,13.70
2018-02-10T18:45:00.763Z,16.60
2018-02-10T18:47:31.353Z,12.45
2018-02-10T18:50:01.437Z,14.38
2018-02-10T18:52:32.132Z,14.93
2018-02-10T18:55:01.316Z,14.85
2018-02-10T18:57:30.289Z,16.10
2018-02-10T19:00:00.792Z,14.07
2018-02-10T19:02:31.006Z,16.27
2018-02-10T19:05:01.773Z,19.77
2018-02-10T19:07:33.637Z,19.02
2018-02-10T19:10:03.977Z,21.33
2018-02-10T19:12:34.912Z,23.35
2018-02-10T19:15:05.136Z,37.33
2018-02-10T19:17:39.673Z,27.20
2018-02-10T19:20:10.884Z,17.67
2018-02-10T19:22:40.557Z,22.17
2018-02-10T19:25:12.008Z,22.08
2018-02-10T19:27:45.509Z,22.05
2018-02-10T19:30:17.157Z,20.80
2018-02-10T19:32:47.481Z,15.32
2018-02-10T19:35:17.831Z,19.00
2018-02-10T19:37:47.934Z,22.27
2018-02-10T19:40:17.651Z,17.95
2018-02-10T19:42:45.868Z,19.33
2018-02-10T19:45:21.357Z,20.25
2018-02-10T19:47:50.398Z,21.92
2018-02-10T19:50:21.759Z,18.20
2018-02-10T19:52:53.886Z,21.37
2018-02-10T19:55:25.076Z,20.67
2018-02-10T19:57:54.851Z,24.35
2018-02-10T20:00:23.901Z,21.50
2018-02-10T20:02:53.748Z,23.10
2018-02-10T20:05:22.625Z,21.80
2018-02-10T20:07:52.853Z,20.27
2018-02-10T20:10:27.116Z,18.87
2018-02-10T20:12:58.178Z,23.20
2018-02-10T20:15:26.393Z,22.80
2018-02-10T20:18:02.542Z,20.08
2018-02-10T20:20:31.334Z,19.00
2018-02-10T20:23:00.872Z,14.32
2018-02-10T20:25:31.160Z,20.77
2018-02-10T20:28:01.437Z,17.77
2018-02-10T20:30:29.783Z,18.87
2018-02-10T20:32:58.434Z,18.02
2018-02-10T20:35:28.066Z,17.75
2018-02-10T20:37:59.594Z,19.87
2018-02-10T20:40:28.588Z,15.50
2018-02-10T20:42:56.770Z,15.35
2018-02-10T20:45:27.425Z,18.37
2018-02-10T20:47:55.952Z,16.15
2018-02-10T20:50:24.970Z,15.80
2018-02-10T20:52:54.809Z,14.70
2018-02-10T20:55:23.122Z,13.43
2018-02-10T20:57:52.419Z,16.55
2018-02-10T21:00:22.640Z,19.05
2018-02-10T21:02:52.748Z,16.90
2018-02-10T21:05:25.274Z,15.43
2018-02-10T21:07:58.990Z,19.55
2018-02-10T21:10:33.684Z,15.75
2018-02-10T21:13:03.762Z,14.80
2018-02-10T21:15:33.254Z,14.05
2018-02-10T21:18:03.061Z,16.50
2018-02-10T21:20:31.928Z,16.42
2018-02-10T21:23:00.993Z,16.60
2018-02-10T21:25:31.198Z,18.75
2018-02-10T21:28:00.760Z,25.77
2018-02-10T21:30:30.151Z,18.77
2018-02-10T21:33:00.932Z,24.90
2018-02-10T21:35:29.716Z,23.58
2018-02-10T21:37:59.776Z,25.85
2018-02-10T21:40:29.927Z,13.48
2018-02-10T21:43:00.652Z,14.57
2018-02-10T21:45:30.572Z,12.07
2018-02-10T21:48:03.601Z,14.70
2018-02-10T21:50:33.334Z,15.18
2018-02-10T21:53:07.471Z,17.48
2018-02-10T21:55:37.717Z,16.58
2018-02-10T21:58:09.213Z,15.65
2018-02-10T22:00:38.925Z,13.73
2018-02-10T22:03:07.604Z,17.10
2018-02-10T22:05:37.541Z,17.12
2018-02-10T22:08:06.640Z,17.25
2018-02-10T22:10:35.513Z,15.23
2018-02-10T22:13:07.537Z,16.58
2018-02-10T22:15:37.434Z,12.88
2018-02-10T22:18:06.579Z,14.02
2018-02-10T22:20:37.541Z,13.13
2018-02-10T22:23:06.633Z,18.98
2018-02-10T22:25:34.866Z,13.65
2018-02-10T22:28:06.115Z,18.62
2018-02-10T22:30:38.520Z,12.48
2018-02-10T22:33:12.747Z,17.33
2018-02-10T22:35:40.905Z,15.60
2018-02-10T22:38:10.868Z,14.57
2018-02-10T22:40:41.042Z,17.30
2018-02-10T22:43:11.066Z,16.10
2018-02-10T22:45:40.201Z,13.23
2018-02-10T22:48:08.394Z,14.70
2018-02-10T22:50:38.401Z,18.77
2018-02-10T22:55:42.494Z,15.27
2018-02-10T22:58:11.497Z,19.35
2018-02-10T23:00:42.427Z,15.27
2018-02-10T23:03:10.686Z,17.08
2018-02-10T23:05:40.658Z,19.92
2018-02-10T23:08:08.821Z,16.90
2018-02-10T23:10:39.170Z,18.35
2018-02-10T23:13:08.789Z,16.35
2018-02-10T23:15:37.752Z,16.17
2018-02-10T23:18:06.857Z,16.58
2018-02-10T23:20:35.308Z,18.50
2018-02-10T23:23:09.052Z,16.45
2018-02-10T23:25:47.599Z,15.60
2018-02-10T23:28:19.009Z,14.43
2018-02-10T23:30:51.405Z,14.87
2018-02-10T23:33:19.569Z,14.15
2018-02-10T23:35:49.345Z,17.20
2018-02-10T23:38:18.269Z,15.05
2018-02-10T23:40:50.833Z,15.30
2018-02-10T23:43:19.851Z,18.27
2018-02-10T23:45:49.652Z,14.90
2018-02-10T23:48:17.984Z,14.95
2018-02-10T23:50:46.951Z,16.10
2018-02-10T23:53:15.405Z,13.60
2018-02-10T23:55:43.569Z,14.15
2018-02-10T23:58:11.757Z,17.77
